KLVJ

Pearland Regional Airport

Houston, Texas, USA
METAR KLVJ 150253Z AUTO 15005KT 10SM CLR 28/25 A2998 RMK AO2 SLP151 T02830250 53006
Observed Flight Rules
Aug-15 @ 02:53 UTC (44 minutes ago) Visual Flight Rules
Wind Visibility Clouds
150° at 5 knots 10 miles
  • Clear skies
Temperatures Readings
Current 28°C / 82°F
Dewpoint 25°C / 77°F
Humidity 84%
Altimeter 29.98" Hg
Pressure 1015.1 hPa
Elevation 12
METAR KLVJ 150253Z AUTO 15005KT 10SM CLR 28/25 A2998 RMK AO2 SLP151 T02830250 53006
Observed Flight Rules
Aug-15 @ 02:53 UTC
(44 minutes ago)
VFR
Wind Visibility
150° at 5 knots 10 miles
Clouds
  • Clear skies
Temperature Dewpoint
28°C / 82°F 25°C / 77°F
Humidity Altimeter Pressure
84% 29.98" Hg 1015.1 hPa